ITY672 LIRF-SBGL
Flight info
| Callsign | ITY672 |
|---|---|
| Flight time | N/A |
| Altitude | 29000 |
| Route | ESINO DCT GITRI DCT GOKMI DCT SUPUX DCT ETOIL DCT REQIN UG26 ZEM/N0485F280 UG26 ALR UM986 BAY/N0495F320 UM986 BRENA UA854 ARDAR UR975 ANITI UA302 TURUP DCT 11N020W 03N025W/N0493F340 DCT KODOS UL206 DAGTA/N0486F360 UL206 VRI UN401 MOLSU |
| Aircraft | A339/H-SADE1E2E3GHIJ3J5M1P2RWXY/LB2D1 |
Departure
| Time | N/A |
|---|---|
| Airport | Rome–Fiumicino Leonardo da Vinci International Airport (LIRF) |
Arrival
| Time | 2026-05-07 00:51 |
|---|---|
| Airport | Rio Galeão – Tom Jobim International Airport (SBGL) |
| Time | Latitude | Longitude | Altitude | Speed | Heading |
|---|---|---|---|---|---|
| 2026-05-06 23:41 | -9.65168 | -33.09287 | 36020 ft | 485 kts | 218° |
| 2026-05-06 23:41 | -9.76540 | -33.16671 | 36022 ft | 485 kts | 218° |
| 2026-05-06 23:42 | -9.99224 | -33.31419 | 36026 ft | 484 kts | 218° |
| 2026-05-06 23:42 | -10.21906 | -33.46189 | 36024 ft | 484 kts | 218° |
| 2026-05-06 23:43 | -10.44383 | -33.60856 | 36036 ft | 483 kts | 218° |
| 2026-05-06 23:43 | -10.67058 | -33.75674 | 36024 ft | 484 kts | 218° |
| 2026-05-06 23:44 | -10.89749 | -33.90529 | 36013 ft | 485 kts | 218° |
| 2026-05-06 23:44 | -11.12339 | -34.05345 | 36033 ft | 487 kts | 218° |
| 2026-05-06 23:45 | -11.35154 | -34.20337 | 36036 ft | 489 kts | 218° |
| 2026-05-06 23:45 | -11.57968 | -34.35356 | 36040 ft | 488 kts | 218° |
| 2026-05-06 23:46 | -11.80788 | -34.50413 | 36052 ft | 486 kts | 218° |
| 2026-05-06 23:46 | -12.03358 | -34.65335 | 36044 ft | 486 kts | 218° |
| 2026-05-06 23:47 | -12.26111 | -34.80408 | 36052 ft | 486 kts | 218° |
| 2026-05-06 23:47 | -12.48762 | -34.95445 | 36046 ft | 485 kts | 218° |
| 2026-05-06 23:48 | -12.71213 | -35.10380 | 36065 ft | 483 kts | 217° |
| 2026-05-06 23:48 | -12.93776 | -35.25425 | 36070 ft | 483 kts | 217° |
| 2026-05-06 23:49 | -13.16256 | -35.40444 | 36076 ft | 481 kts | 216° |
| 2026-05-06 23:49 | -13.38484 | -35.55327 | 36067 ft | 479 kts | 216° |
| 2026-05-06 23:50 | -13.60736 | -35.70259 | 36065 ft | 477 kts | 216° |
| 2026-05-06 23:50 | -13.93995 | -35.92641 | 36056 ft | 475 kts | 216° |
| 2026-05-06 23:51 | -14.15972 | -36.07472 | 36077 ft | 475 kts | 216° |
| 2026-05-06 23:51 | -14.38112 | -36.22449 | 36086 ft | 476 kts | 216° |
| 2026-05-06 23:52 | -14.60267 | -36.37472 | 36090 ft | 477 kts | 216° |
| 2026-05-06 23:52 | -14.82437 | -36.52541 | 36098 ft | 477 kts | 216° |
| 2026-05-06 23:53 | -15.04641 | -36.67668 | 36100 ft | 477 kts | 216° |
| 2026-05-06 23:53 | -15.26619 | -36.82684 | 36099 ft | 476 kts | 216° |
| 2026-05-06 23:54 | -15.48726 | -36.97824 | 36109 ft | 476 kts | 216° |
| 2026-05-06 23:54 | -15.70770 | -37.12962 | 36099 ft | 475 kts | 216° |
| 2026-05-06 23:55 | -15.92706 | -37.28066 | 36112 ft | 472 kts | 216° |
| 2026-05-06 23:55 | -16.14431 | -37.43055 | 36104 ft | 470 kts | 216° |
| 2026-05-06 23:56 | -16.36279 | -37.57971 | 36115 ft | 468 kts | 216° |
| 2026-05-06 23:56 | -16.58050 | -37.72887 | 36124 ft | 467 kts | 215° |
| 2026-05-06 23:57 | -16.79583 | -37.87679 | 36130 ft | 465 kts | 215° |
| 2026-05-06 23:57 | -17.01179 | -38.02558 | 36133 ft | 464 kts | 214° |
| 2026-05-06 23:58 | -17.22713 | -38.17434 | 36114 ft | 464 kts | 214° |
| 2026-05-06 23:58 | -17.44214 | -38.32330 | 36112 ft | 463 kts | 214° |
| 2026-05-06 23:59 | -17.65671 | -38.47238 | 36115 ft | 462 kts | 214° |
| 2026-05-06 23:59 | -17.86926 | -38.62047 | 36115 ft | 462 kts | 214° |
| 2026-05-07 00:00 | -18.08201 | -38.76914 | 36125 ft | 458 kts | 214° |
| 2026-05-07 00:00 | -18.29351 | -38.91738 | 36134 ft | 457 kts | 214° |
| 2026-05-07 00:01 | -18.50528 | -39.06525 | 36134 ft | 457 kts | 213° |
| 2026-05-07 00:01 | -18.71618 | -39.21071 | 36136 ft | 454 kts | 213° |
| 2026-05-07 00:02 | -18.92736 | -39.35692 | 36146 ft | 453 kts | 212° |
| 2026-05-07 00:02 | -19.13781 | -39.50308 | 36145 ft | 452 kts | 212° |
| 2026-05-07 00:03 | -19.34757 | -39.64922 | 36148 ft | 450 kts | 212° |
| 2026-05-07 00:03 | -19.55525 | -39.79435 | 36160 ft | 449 kts | 212° |
| 2026-05-07 00:04 | -19.63145 | -39.84772 | 36161 ft | 449 kts | 212° |
| 2026-05-07 00:04 | -19.68358 | -39.88425 | 36162 ft | 449 kts | 212° |
| 2026-05-07 00:05 | -19.73590 | -39.92069 | 36161 ft | 449 kts | 212° |
| 2026-05-07 00:05 | -19.78797 | -39.95666 | 36162 ft | 449 kts | 212° |
| 2026-05-07 00:06 | -19.84035 | -39.99292 | 36164 ft | 450 kts | 212° |
| 2026-05-07 00:06 | -19.89279 | -40.02929 | 36164 ft | 450 kts | 212° |
| 2026-05-07 00:07 | -19.94481 | -40.06541 | 36166 ft | 450 kts | 212° |
| 2026-05-07 00:07 | -19.99720 | -40.10181 | 36166 ft | 450 kts | 212° |
| 2026-05-07 00:08 | -20.04954 | -40.13820 | 36177 ft | 450 kts | 212° |
| 2026-05-07 00:08 | -20.10192 | -40.17466 | 36178 ft | 450 kts | 212° |
| 2026-05-07 00:09 | -20.15431 | -40.21114 | 36153 ft | 450 kts | 212° |
| 2026-05-07 00:09 | -20.20632 | -40.24739 | 36157 ft | 450 kts | 212° |
| 2026-05-07 00:10 | -20.25688 | -40.28665 | 36163 ft | 451 kts | 219° |
| 2026-05-07 00:10 | -20.30068 | -40.33460 | 36174 ft | 453 kts | 227° |
| 2026-05-07 00:11 | -20.34187 | -40.38542 | 36171 ft | 453 kts | 227° |
| 2026-05-07 00:11 | -20.38291 | -40.43575 | 36179 ft | 453 kts | 227° |
| 2026-05-07 00:12 | -20.42422 | -40.48652 | 36203 ft | 453 kts | 227° |
| 2026-05-07 00:12 | -20.46543 | -40.53726 | 36199 ft | 452 kts | 227° |
| 2026-05-07 00:13 | -20.50663 | -40.58804 | 36201 ft | 452 kts | 227° |
| 2026-05-07 00:13 | -20.54756 | -40.63856 | 36208 ft | 452 kts | 227° |
| 2026-05-07 00:14 | -20.56814 | -40.66395 | 36214 ft | 452 kts | 227° |
| 2026-05-07 00:14 | -20.57275 | -40.66964 | 36214 ft | 452 kts | 227° |
| 2026-05-07 00:15 | -20.61385 | -40.72044 | 36193 ft | 452 kts | 227° |
| 2026-05-07 00:15 | -20.65466 | -40.77090 | 36197 ft | 451 kts | 227° |
| 2026-05-07 00:16 | -20.69566 | -40.82165 | 36171 ft | 451 kts | 227° |
| 2026-05-07 00:16 | -20.73726 | -40.87177 | 36198 ft | 451 kts | 226° |
| 2026-05-07 00:17 | -20.77923 | -40.92155 | 36201 ft | 450 kts | 226° |
| 2026-05-07 00:17 | -20.82071 | -40.97104 | 36191 ft | 449 kts | 226° |
| 2026-05-07 00:18 | -20.86239 | -41.02091 | 36173 ft | 449 kts | 226° |
| 2026-05-07 00:18 | -20.90400 | -41.07075 | 36183 ft | 449 kts | 226° |
| 2026-05-07 00:19 | -20.94556 | -41.12059 | 36166 ft | 449 kts | 226° |
| 2026-05-07 00:19 | -20.98694 | -41.17026 | 36158 ft | 449 kts | 226° |
| 2026-05-07 00:20 | -21.02853 | -41.22025 | 36186 ft | 449 kts | 226° |
| 2026-05-07 00:20 | -21.07014 | -41.27027 | 36192 ft | 449 kts | 226° |
| 2026-05-07 00:21 | -21.11143 | -41.31996 | 36185 ft | 449 kts | 226° |
| 2026-05-07 00:21 | -21.15296 | -41.37000 | 36189 ft | 449 kts | 226° |
| 2026-05-07 00:22 | -21.19442 | -41.42001 | 36187 ft | 448 kts | 226° |
| 2026-05-07 00:22 | -21.23558 | -41.46967 | 36178 ft | 448 kts | 226° |
| 2026-05-07 00:23 | -21.27695 | -41.51964 | 36163 ft | 447 kts | 226° |
| 2026-05-07 00:23 | -21.31827 | -41.56959 | 36173 ft | 447 kts | 226° |
| 2026-05-07 00:24 | -21.35912 | -41.61908 | 36175 ft | 446 kts | 226° |
| 2026-05-07 00:24 | -21.40027 | -41.66898 | 36176 ft | 446 kts | 226° |
| 2026-05-07 00:25 | -21.44140 | -41.71888 | 36177 ft | 446 kts | 226° |
| 2026-05-07 00:25 | -21.48250 | -41.76880 | 36178 ft | 445 kts | 226° |
| 2026-05-07 00:26 | -21.52320 | -41.81829 | 36177 ft | 445 kts | 226° |
| 2026-05-07 00:26 | -21.56416 | -41.86810 | 36173 ft | 444 kts | 226° |
| 2026-05-07 00:27 | -21.60507 | -41.91792 | 36180 ft | 444 kts | 226° |
| 2026-05-07 00:27 | -21.64594 | -41.96773 | 36164 ft | 444 kts | 226° |
| 2026-05-07 00:28 | -21.67952 | -42.00871 | 36181 ft | 443 kts | 226° |
| 2026-05-07 00:28 | -21.72023 | -42.05841 | 36178 ft | 442 kts | 226° |
| 2026-05-07 00:29 | -21.76084 | -42.10805 | 36180 ft | 442 kts | 226° |
| 2026-05-07 00:30 | -21.83857 | -42.21034 | 35827 ft | 441 kts | 235° |
| 2026-05-07 00:30 | -21.85371 | -42.23855 | 35196 ft | 444 kts | 240° |
| 2026-05-07 00:30 | -21.86697 | -42.26873 | 34373 ft | 449 kts | 244° |
| 2026-05-07 00:31 | -21.87972 | -42.29963 | 33367 ft | 453 kts | 243° |
| 2026-05-07 00:31 | -21.89269 | -42.33068 | 32302 ft | 457 kts | 243° |
| 2026-05-07 00:31 | -21.90588 | -42.36210 | 31218 ft | 462 kts | 243° |
| 2026-05-07 00:31 | -21.91912 | -42.39365 | 30459 ft | 461 kts | 243° |
| 2026-05-07 00:32 | -21.93205 | -42.42455 | 29746 ft | 457 kts | 243° |
| 2026-05-07 00:32 | -21.94502 | -42.45556 | 29190 ft | 451 kts | 243° |
| 2026-05-07 00:32 | -21.95787 | -42.48624 | 28662 ft | 447 kts | 243° |
| 2026-05-07 00:32 | -21.97063 | -42.51674 | 28146 ft | 446 kts | 244° |
| 2026-05-07 00:33 | -21.98335 | -42.54715 | 27643 ft | 444 kts | 244° |
| 2026-05-07 00:33 | -21.99599 | -42.57739 | 27143 ft | 441 kts | 244° |
| 2026-05-07 00:33 | -22.00852 | -42.60742 | 26657 ft | 438 kts | 244° |
| 2026-05-07 00:33 | -22.02099 | -42.63729 | 26177 ft | 436 kts | 244° |
| 2026-05-07 00:34 | -22.03324 | -42.66666 | 25710 ft | 434 kts | 245° |
| 2026-05-07 00:34 | -22.04560 | -42.69630 | 25233 ft | 432 kts | 245° |
| 2026-05-07 00:34 | -22.05786 | -42.72574 | 24792 ft | 430 kts | 245° |
| 2026-05-07 00:34 | -22.07006 | -42.75505 | 24341 ft | 428 kts | 245° |
| 2026-05-07 00:35 | -22.08226 | -42.78436 | 23891 ft | 426 kts | 245° |
| 2026-05-07 00:35 | -22.09433 | -42.81342 | 23389 ft | 424 kts | 246° |
| 2026-05-07 00:35 | -22.10617 | -42.84195 | 22875 ft | 420 kts | 246° |
| 2026-05-07 00:35 | -22.11804 | -42.87060 | 22362 ft | 417 kts | 246° |
| 2026-05-07 00:36 | -22.12985 | -42.89909 | 21859 ft | 415 kts | 245° |
| 2026-05-07 00:36 | -22.14160 | -42.92746 | 21364 ft | 412 kts | 245° |
| 2026-05-07 00:36 | -22.15324 | -42.95558 | 20877 ft | 410 kts | 245° |
| 2026-05-07 00:36 | -22.16487 | -42.98365 | 20394 ft | 409 kts | 245° |
| 2026-05-07 00:37 | -22.17646 | -43.01165 | 19940 ft | 408 kts | 245° |
| 2026-05-07 00:37 | -22.18799 | -43.03953 | 19467 ft | 405 kts | 245° |
| 2026-05-07 00:37 | -22.19930 | -43.06689 | 19020 ft | 404 kts | 245° |
| 2026-05-07 00:37 | -22.21071 | -43.09450 | 18560 ft | 402 kts | 245° |
| 2026-05-07 00:38 | -22.22207 | -43.12202 | 18072 ft | 400 kts | 245° |
| 2026-05-07 00:38 | -22.23333 | -43.14930 | 17582 ft | 396 kts | 245° |
| 2026-05-07 00:38 | -22.24447 | -43.17631 | 17122 ft | 392 kts | 245° |
| 2026-05-07 00:38 | -22.25552 | -43.20309 | 16686 ft | 390 kts | 245° |
| 2026-05-07 00:39 | -22.26654 | -43.22982 | 16405 ft | 388 kts | 245° |
| 2026-05-07 00:39 | -22.27750 | -43.25646 | 16161 ft | 389 kts | 245° |
| 2026-05-07 00:39 | -22.28845 | -43.28307 | 15913 ft | 387 kts | 245° |
| 2026-05-07 00:39 | -22.29921 | -43.30920 | 15443 ft | 386 kts | 246° |
| 2026-05-07 00:40 | -22.31010 | -43.33568 | 14893 ft | 384 kts | 246° |
| 2026-05-07 00:40 | -22.32079 | -43.36171 | 14415 ft | 374 kts | 246° |
| 2026-05-07 00:40 | -22.33125 | -43.38720 | 13847 ft | 368 kts | 246° |
| 2026-05-07 00:40 | -22.34142 | -43.41202 | 13521 ft | 353 kts | 246° |
| 2026-05-07 00:41 | -22.35112 | -43.43567 | 13339 ft | 336 kts | 246° |
| 2026-05-07 00:41 | -22.36034 | -43.45817 | 13191 ft | 319 kts | 246° |
| 2026-05-07 00:41 | -22.37100 | -43.47813 | 13051 ft | 312 kts | 229° |
| 2026-05-07 00:41 | -22.38783 | -43.49282 | 12727 ft | 314 kts | 207° |
| 2026-05-07 00:42 | -22.40803 | -43.50170 | 12298 ft | 313 kts | 199° |
| 2026-05-07 00:42 | -22.42842 | -43.50957 | 11789 ft | 310 kts | 199° |
| 2026-05-07 00:42 | -22.44877 | -43.51751 | 11178 ft | 311 kts | 199° |
| 2026-05-07 00:42 | -22.46890 | -43.52558 | 10645 ft | 307 kts | 199° |
| 2026-05-07 00:43 | -22.48890 | -43.53382 | 10055 ft | 307 kts | 200° |
| 2026-05-07 00:43 | -22.50845 | -43.54197 | 9519 ft | 303 kts | 200° |
| 2026-05-07 00:43 | -22.52783 | -43.55008 | 9190 ft | 291 kts | 200° |
| 2026-05-07 00:43 | -22.54656 | -43.55776 | 8773 ft | 282 kts | 197° |
| 2026-05-07 00:44 | -22.56575 | -43.55971 | 8208 ft | 277 kts | 170° |
| 2026-05-07 00:44 | -22.58363 | -43.55342 | 7852 ft | 265 kts | 157° |
| 2026-05-07 00:44 | -22.60064 | -43.54631 | 7486 ft | 258 kts | 158° |
| 2026-05-07 00:44 | -22.61703 | -43.53975 | 7104 ft | 251 kts | 157° |
| 2026-05-07 00:45 | -22.63204 | -43.53029 | 6556 ft | 251 kts | 140° |
| 2026-05-07 00:45 | -22.64438 | -43.51721 | 6140 ft | 244 kts | 131° |
| 2026-05-07 00:45 | -22.65494 | -43.50305 | 5771 ft | 240 kts | 126° |
| 2026-05-07 00:45 | -22.66467 | -43.48857 | 5415 ft | 235 kts | 124° |
| 2026-05-07 00:46 | -22.67351 | -43.47409 | 5143 ft | 227 kts | 122° |
| 2026-05-07 00:46 | -22.68201 | -43.45981 | 4738 ft | 226 kts | 122° |
| 2026-05-07 00:46 | -22.69054 | -43.44556 | 4329 ft | 222 kts | 123° |
| 2026-05-07 00:46 | -22.69958 | -43.43226 | 3910 ft | 216 kts | 126° |
| 2026-05-07 00:47 | -22.70839 | -43.41953 | 3530 ft | 210 kts | 126° |
| 2026-05-07 00:47 | -22.71693 | -43.40697 | 3185 ft | 205 kts | 125° |
| 2026-05-07 00:47 | -22.72524 | -43.39477 | 2872 ft | 197 kts | 125° |
| 2026-05-07 00:47 | -22.73311 | -43.38335 | 2704 ft | 181 kts | 125° |
| 2026-05-07 00:48 | -22.74036 | -43.37272 | 2456 ft | 170 kts | 123° |
| 2026-05-07 00:48 | -22.74686 | -43.36239 | 2164 ft | 162 kts | 122° |
| 2026-05-07 00:48 | -22.75308 | -43.35251 | 1927 ft | 159 kts | 123° |
| 2026-05-07 00:48 | -22.75970 | -43.34264 | 1813 ft | 157 kts | 124° |
| 2026-05-07 00:49 | -22.76382 | -43.33650 | 1664 ft | 148 kts | 123° |
| 2026-05-07 00:49 | -22.76953 | -43.32781 | 1394 ft | 136 kts | 123° |
| 2026-05-07 00:49 | -22.77692 | -43.31663 | 1160 ft | 135 kts | 124° |
| 2026-05-07 00:49 | -22.78063 | -43.31118 | 1053 ft | 136 kts | 124° |
| 2026-05-07 00:50 | -22.78787 | -43.30028 | 871 ft | 136 kts | 124° |
| 2026-05-07 00:50 | -22.79329 | -43.29202 | 719 ft | 133 kts | 124° |
| 2026-05-07 00:50 | -22.79688 | -43.28662 | 582 ft | 134 kts | 125° |
| 2026-05-07 00:50 | -22.80429 | -43.27581 | 347 ft | 132 kts | 126° |
| 2026-05-07 00:51 | -22.80798 | -43.27043 | 250 ft | 135 kts | 125° |
| 2026-05-07 00:51 | -22.81350 | -43.26227 | 49 ft | 131 kts | 124° |
| 2026-05-07 00:51 | -22.81805 | -43.25524 | 31 ft | 87 kts | 124° |
| 2026-05-07 00:51 | -22.82038 | -43.25172 | 31 ft | 28 kts | 126° |
| 2026-05-07 00:52 | -22.82161 | -43.24984 | 29 ft | 32 kts | 125° |
| 2026-05-07 00:52 | -22.82280 | -43.24806 | 30 ft | 22 kts | 126° |
| 2026-05-07 00:52 | -22.82348 | -43.24662 | 28 ft | 21 kts | 103° |
| 2026-05-07 00:52 | -22.82362 | -43.24535 | 25 ft | 12 kts | 96° |
| 2026-05-07 00:53 | -22.82362 | -43.24458 | 26 ft | 9 kts | 77° |
| 2026-05-07 00:53 | -22.82314 | -43.24406 | 29 ft | 11 kts | 36° |
| 2026-05-07 00:53 | -22.82252 | -43.24357 | 32 ft | 10 kts | 36° |
| 2026-05-07 00:53 | -22.82197 | -43.24314 | 27 ft | 10 kts | 36° |
| 2026-05-07 00:54 | -22.82134 | -43.24301 | 27 ft | 9 kts | 332° |
| 2026-05-07 00:54 | -22.82077 | -43.24311 | 27 ft | 8 kts | 26° |
| 2026-05-07 00:54 | -22.82026 | -43.24276 | 26 ft | 10 kts | 34° |
| 2026-05-07 00:54 | -22.81970 | -43.24233 | 27 ft | 8 kts | 36° |
| 2026-05-07 00:55 | -22.81933 | -43.24231 | 27 ft | 3 kts | 321° |
| 2026-05-07 00:55 | -22.81917 | -43.24258 | 27 ft | 6 kts | 307° |
| 2026-05-07 00:55 | -22.81893 | -43.24293 | 27 ft | 6 kts | 307° |
| 2026-05-07 00:55 | -22.81891 | -43.24296 | 27 ft | 0 kts | 307° |